Meteo Giornale » Osservazioni meteo Italia » Milano-Malpensa

ore: 19:50 - Osservazioni Meteo Milano-Malpensa
Lat. 45° 37' N Lon. 8° 44' E Alt. 234 metri s.l.m.

sereno Europe/Rome

16 °C

Sereno

Temp. 24 Ore

12 °C

23 °C

Nord

3.7 Km/h

Dew point 13 °C

Umidità 82 %

Visibilità  10 Km

Il sole sorge alle ore 07:47

Il sole tramonta alle ore 18:32

Data e Ora Cielo e Fenomeni T °C DP °C Um. % Pres. hPa Vis. km Vento km/h
Oggi h: 19:50 sereno Sereno 16 13 82 1023 10 N 3.7
Oggi h: 19:20 sereno Sereno 17 13 77 1022 10 N 3.7
Oggi h: 18:50 sereno Sereno 18 13 72 1022 10 N 3.7
Oggi h: 18:20 sereno Sereno 21 13 60 1022 10 N 5.5
Oggi h: 17:50 sereno Sereno 21 13 60 1022 10 N 5.5
Oggi h: 17:20 sereno Sereno 22 13 56 1022 10 N 5.5
Oggi h: 16:50 sereno Sereno 22 13 56 1022 10 O 7.4
Oggi h: 16:20 poco_nuvoloso Poco Nuvoloso 23 13 53 1022 10 N 5.5
Oggi h: 15:50 sereno Sereno 23 13 53 1022 10 S 7.4
Oggi h: 15:20 sereno Sereno 23 13 53 1023 10 N 7.4
Oggi h: 14:50 sereno Sereno 23 13 53 1023 10 S 7.4
Oggi h: 14:20 sereno Sereno 22 13 56 1023 10 S/SE 7.4
Oggi h: 13:50 sereno Sereno 22 13 56 1024 10 SE 7.4
Oggi h: 13:20 sereno Sereno 21 14 64 1024 10 S/SE 9.3
Oggi h: 12:50 sereno Sereno 21 14 64 1024 10 N 3.7
Oggi h: 11:50 sereno Sereno 19 14 72 1024 10 N 5.5
Oggi h: 11:20 sereno Sereno 20 14 68 1024 10 N 3.7
Oggi h: 10:50 sereno Sereno 19 13 68 1024 10 N 1.8
Oggi h: 10:20 sereno Sereno 18 14 77 1024 10 N 5.5
Oggi h: 09:50 sereno Sereno 17 14 82 1024 10 N 5.5
Oggi h: 09:20 sereno Sereno 15 14 93 1023 10 N 7.4
Oggi h: 08:50 nuvoloso Nuvoloso 14 13 93 1023 10 N 5.5
Oggi h: 08:20 nuvoloso Nuvoloso 14 13 93 1022 10 N 5.5
Oggi h: 07:50 molto_nuvoloso Molto Nuvoloso 14 13 93 1022 10 N 1.8
Oggi h: 07:20 molto_nuvoloso Molto Nuvoloso 14 13 93 1022 10 N 9.3
Oggi h: 06:50 poco_nuvoloso Poco Nuvoloso 14 13 93 1022 10 N/NE 7.4
Oggi h: 06:20 nuvoloso Nuvoloso 13 13 100 1022 10 N 7.4
Oggi h: 05:50 sereno Sereno 13 12 93 1022 10 N 7.4
Oggi h: 05:20 sereno Sereno 12 11 93 1022 10 N/NE 9.3
Oggi h: 04:50 sereno Sereno 12 12 100 1022 10 N 13
Oggi h: 04:20 sereno Sereno 13 12 93 1022 10 N 9.3
Oggi h: 03:50 sereno Sereno 13 12 93 1022 10 N 13
Oggi h: 03:20 sereno Sereno 12 12 100 1022 10 N 7.4
Oggi h: 02:50 sereno Sereno 14 13 93 1022 10 N 9.3
Oggi h: 02:20 sereno Sereno 13 12 93 1022 10 N 11.1
Oggi h: 01:50 sereno Sereno 13 12 93 1022 10 N 9.3
Oggi h: 01:20 sereno Sereno 13 12 93 1021 10 N/NE 7.4
Oggi h: 00:50 sereno Sereno 13 12 93 1021 10 N/NE 9.3
Oggi h: 00:20 sereno Sereno 13 12 93 1021 10 N 5.5
Ieri h: 23:50 sereno Sereno 14 12 87 1021 10 N 9.3
Ieri h: 23:20 sereno Sereno 14 13 93 1021 10 N 7.4
Ieri h: 22:50 sereno Sereno 14 13 93 1021 10 N 9.3
Ieri h: 22:20 sereno Sereno 14 13 93 1020 10 N 7.4
Ieri h: 21:50 sereno Sereno 15 13 87 1020 10 N 5.5
Ieri h: 21:20 sereno Sereno 15 13 87 1020 10 N 3.7